Time;durP1;ratioP1;P1;durP2;ratioP2;P2;SDS_P1;SDS_P2;PMS_P1;PMS_P2;Temp;Humidity;BMP_temperature;BMP_pressure;BME280_temperature;BME280_humidity;BME280_pressure;Samples;Min_cycle;Max_cycle;Signal;HPM_P1;HPM_P2
2023/07/29 00:00:35;;;;;;;19.53;9.87;;;17.70;99.90;;;;;;5100195;27;20070;-73
2023/07/29 00:03:00;;;;;;;20.13;10.40;;;17.60;99.90;;;;;;5117617;27;20035;-73
2023/07/29 00:05:26;;;;;;;19.23;10.30;;;17.60;99.90;;;;;;5117164;28;20087;-72
2023/07/29 00:07:52;;;;;;;18.90;10.13;;;17.60;99.90;;;;;;5135795;27;20046;-72
2023/07/29 00:10:18;;;;;;;19.63;10.10;;;17.60;99.90;;;;;;5135408;28;20129;-71
2023/07/29 00:12:43;;;;;;;18.07;10.00;;;17.60;99.90;;;;;;5135188;28;20128;-71
2023/07/29 00:15:09;;;;;;;20.67;10.10;;;17.60;99.90;;;;;;5135446;28;20404;-71
2023/07/29 00:17:35;;;;;;;18.87;9.87;;;17.60;99.90;;;;;;5116873;28;20047;-72
2023/07/29 00:20:01;;;;;;;20.77;10.63;;;17.60;99.90;;;;;;5099893;28;20095;-74
2023/07/29 00:22:27;;;;;;;21.73;10.57;;;17.50;99.90;;;;;;5150927;27;20451;-72
2023/07/29 00:24:57;;;;;;;19.10;10.13;;;17.50;99.90;;;;;;5135811;28;20085;-72
2023/07/29 00:27:23;;;;;;;19.17;10.30;;;17.50;99.90;;;;;;5134785;28;20115;-72
2023/07/29 00:29:49;;;;;;;23.03;10.00;;;17.40;99.90;;;;;;5135142;27;20505;-73
2023/07/29 00:32:14;;;;;;;17.77;9.80;;;17.40;99.90;;;;;;5120800;27;20039;-72
2023/07/29 00:34:40;;;;;;;19.73;10.23;;;17.40;99.90;;;;;;5120556;27;20043;-72
2023/07/29 00:37:06;;;;;;;20.33;9.60;;;17.40;99.90;;;;;;5120558;27;20046;-72
2023/07/29 00:39:32;;;;;;;18.77;9.67;;;17.40;99.90;;;;;;5152869;27;20035;-73
2023/07/29 00:41:58;;;;;;;19.58;9.45;;;17.40;99.90;;;;;;5137175;27;20039;-72
2023/07/29 00:44:24;;;;;;;19.88;9.43;;;17.40;99.90;;;;;;5120956;27;20126;-73
2023/07/29 00:46:53;;;;;;;20.17;9.97;;;17.40;99.90;;;;;;5121068;27;20485;-73
2023/07/29 00:49:20;;;;;;;19.27;8.88;;;17.30;99.90;;;;;;5138559;27;20095;-73
2023/07/29 00:51:46;;;;;;;;;;;17.30;99.90;;;;;;5138793;27;20478;-72
2023/07/29 00:54:12;;;;;;;15.50;8.40;;;17.30;99.90;;;;;;5138389;27;19922;-72
2023/07/29 00:56:38;;;;;;;16.15;8.57;;;17.30;99.90;;;;;;5139067;27;20043;-72
2023/07/29 00:59:04;;;;;;;17.93;8.67;;;17.30;99.90;;;;;;5138442;27;20378;-72
2023/07/29 01:01:31;;;;;;;15.67;8.40;;;17.30;99.90;;;;;;5119934;27;20127;-71
2023/07/29 01:03:57;;;;;;;17.65;8.65;;;17.30;99.90;;;;;;5102449;27;20287;-72
2023/07/29 01:06:55;;;;;;;18.77;8.80;;;17.30;99.90;;;;;;5138618;27;20412;-72
2023/07/29 01:09:48;;;;;;;18.40;8.65;;;17.30;99.90;;;;;;5137697;27;20042;-73
2023/07/29 01:12:21;;;;;;;16.95;8.32;;;17.30;99.90;;;;;;5137747;27;20129;-73
2023/07/29 01:15:19;;;;;;;18.65;8.55;;;17.40;99.90;;;;;;5137963;27;20118;-73
2023/07/29 01:17:58;;;;;;;18.13;8.48;;;17.40;99.90;;;;;;5119825;27;20051;-73
2023/07/29 01:20:26;;;;;;;17.95;8.73;;;17.40;99.90;;;;;;5136492;27;20051;-72
2023/07/29 01:22:51;;;;;;;15.82;8.77;;;17.40;99.90;;;;;;5136647;27;20051;-73
2023/07/29 01:25:17;;;;;;;20.40;7.80;;;17.30;99.90;;;;;;5119940;27;20035;-73
2023/07/29 01:27:45;;;;;;;16.30;8.30;;;17.30;99.90;;;;;;5102646;27;20064;-73
2023/07/29 01:30:11;;;;;;;17.02;8.38;;;17.20;99.90;;;;;;5137277;27;20412;-73
2023/07/29 01:32:52;;;;;;;16.97;8.73;;;17.20;99.90;;;;;;5137421;27;20053;-73
2023/07/29 01:35:33;;;;;;;15.77;8.45;;;17.20;99.90;;;;;;5137327;27;20031;-73
2023/07/29 01:38:11;;;;;;;15.98;7.88;;;17.10;99.90;;;;;;5119182;27;20093;-73
2023/07/29 01:40:37;;;;;;;16.65;8.77;;;17.10;99.90;;;;;;5136665;27;20486;-73
2023/07/29 01:43:03;;;;;;;18.43;8.93;;;17.10;99.90;;;;;;5102874;27;20148;-73
2023/07/29 01:45:31;;;;;;;17.40;8.38;;;17.00;99.90;;;;;;5118794;27;20043;-72
2023/07/29 01:47:57;;;;;;;16.92;8.73;;;17.00;99.90;;;;;;5118851;27;20047;-71
2023/07/29 01:50:23;;;;;;;17.90;8.70;;;17.00;99.90;;;;;;5136845;27;20031;-73
2023/07/29 01:52:48;;;;;;;17.40;9.30;;;16.90;99.90;;;;;;5118701;27;20043;-72
2023/07/29 01:55:14;;;;;;;15.77;8.77;;;16.90;99.90;;;;;;5136902;27;20043;-74
2023/07/29 01:57:40;;;;;;;15.88;8.88;;;16.90;99.90;;;;;;5136911;27;20122;-73
2023/07/29 02:00:07;;;;;;;15.93;8.30;;;16.80;99.90;;;;;;5136798;27;20035;-72
2023/07/29 02:02:33;;;;;;;18.58;8.65;;;16.80;99.90;;;;;;5118356;27;20047;-73
2023/07/29 02:04:58;;;;;;;16.73;8.20;;;16.80;99.90;;;;;;5118409;27;20112;-73
2023/07/29 02:07:26;;;;;;;14.38;7.95;;;16.80;99.90;;;;;;5118319;27;20054;-72
2023/07/29 02:09:52;;;;;;;15.20;7.78;;;16.80;99.90;;;;;;5135636;27;20096;-72
2023/07/29 02:12:17;;;;;;;18.07;8.03;;;16.80;99.90;;;;;;5152902;27;20051;-72
2023/07/29 02:14:43;;;;;;;16.33;7.13;;;16.90;99.90;;;;;;5137117;27;20070;-71
2023/07/29 02:17:09;;;;;;;14.47;6.57;;;16.90;99.90;;;;;;5118305;27;20047;-73
2023/07/29 02:19:34;;;;;;;13.80;6.23;;;17.00;99.90;;;;;;5136734;27;20039;-72
2023/07/29 02:22:00;;;;;;;11.93;6.07;;;17.00;99.90;;;;;;5136099;27;20039;-72
2023/07/29 02:24:26;;;;;;;11.97;5.70;;;17.00;99.90;;;;;;5136422;27;20124;-72
2023/07/29 02:26:51;;;;;;;9.57;5.00;;;17.00;99.90;;;;;;5101182;27;20065;-72
2023/07/29 02:29:17;;;;;;;12.40;5.43;;;17.00;99.90;;;;;;5101097;27;20042;-72
2023/07/29 02:31:44;;;;;;;10.45;4.72;;;17.10;99.90;;;;;;5135230;27;20122;-72
2023/07/29 02:34:09;;;;;;;14.50;5.30;;;17.00;99.90;;;;;;5137039;27;20370;-72
2023/07/29 02:36:35;;;;;;;8.37;4.47;;;17.00;99.90;;;;;;5117920;27;20043;-72
2023/07/29 02:39:01;;;;;;;9.73;4.38;;;17.00;99.90;;;;;;5136476;27;20039;-72
2023/07/29 02:41:26;;;;;;;7.83;4.07;;;17.10;99.90;;;;;;5135998;27;20463;-72
2023/07/29 02:43:52;;;;;;;10.20;4.17;;;17.00;99.90;;;;;;5117595;27;20176;-72
2023/07/29 02:46:18;;;;;;;11.87;4.33;;;17.00;99.90;;;;;;5136469;27;20050;-72
2023/07/29 02:48:44;;;;;;;10.83;4.13;;;16.90;99.90;;;;;;5135769;27;20046;-72
2023/07/29 02:51:10;;;;;;;9.95;4.55;;;16.90;99.90;;;;;;5135843;27;20043;-74
2023/07/29 02:53:36;;;;;;;9.10;4.47;;;16.90;99.90;;;;;;5135288;27;20046;-71
2023/07/29 02:56:03;;;;;;;10.23;3.85;;;16.80;99.90;;;;;;5135386;27;20486;-71
2023/07/29 02:58:29;;;;;;;13.25;4.72;;;16.80;99.90;;;;;;5135670;27;20104;-72
2023/07/29 03:01:02;;;;;;;11.10;4.40;;;16.70;99.90;;;;;;5117415;27;20043;-72
2023/07/29 03:03:27;;;;;;;11.48;4.53;;;16.70;99.90;;;;;;5136079;27;20089;-73
2023/07/29 03:06:01;;;;;;;10.77;4.23;;;16.70;99.90;;;;;;5117293;27;20451;-73
2023/07/29 03:08:27;;;;;;;12.27;4.15;;;16.70;99.90;;;;;;5135395;27;20046;-72
2023/07/29 03:10:54;;;;;;;10.73;4.60;;;16.70;99.90;;;;;;5099730;27;20051;-72
2023/07/29 03:13:19;;;;;;;8.98;4.07;;;16.70;99.90;;;;;;5135421;27;20046;-72
2023/07/29 03:15:45;;;;;;;10.10;3.85;;;16.70;99.90;;;;;;5151510;27;20382;-73
2023/07/29 03:18:11;;;;;;;9.80;4.10;;;16.70;99.90;;;;;;5135329;27;20075;-72
2023/07/29 03:20:36;;;;;;;11.93;4.82;;;16.60;99.90;;;;;;5135486;27;20411;-72
2023/07/29 03:23:02;;;;;;;9.90;3.85;;;16.50;99.90;;;;;;5135853;27;20160;-72
2023/07/29 03:25:28;;;;;;;14.52;4.13;;;16.50;99.90;;;;;;5135114;27;20090;-72
2023/07/29 03:27:54;;;;;;;8.60;3.77;;;16.50;99.90;;;;;;5134170;27;20050;-73
2023/07/29 03:30:21;;;;;;;10.73;3.47;;;16.40;99.90;;;;;;5135014;27;20427;-72
2023/07/29 03:32:47;;;;;;;;;;;16.40;99.90;;;;;;5117439;27;20289;-72
2023/07/29 03:35:13;;;;;;;8.35;3.85;;;16.40;99.90;;;;;;5099958;27;19922;-71
2023/07/29 03:37:39;;;;;;;8.23;3.90;;;16.30;99.90;;;;;;5099772;27;20424;-71
2023/07/29 03:40:06;;;;;;;9.50;3.80;;;16.30;99.90;;;;;;5134918;27;20035;-72
2023/07/29 03:42:32;;;;;;;9.82;4.25;;;16.30;99.90;;;;;;5099800;27;20489;-71
2023/07/29 03:44:58;;;;;;;8.90;4.68;;;16.30;99.90;;;;;;5099878;27;20151;-72
2023/07/29 03:47:23;;;;;;;9.73;4.00;;;16.20;99.90;;;;;;5134436;27;20118;-72
2023/07/29 03:49:49;;;;;;;7.97;4.10;;;16.20;99.90;;;;;;5116960;27;20143;-72
2023/07/29 03:52:15;;;;;;;9.60;3.83;;;16.20;99.90;;;;;;5134996;27;20419;-73
2023/07/29 03:54:40;;;;;;;10.57;4.10;;;16.20;99.90;;;;;;5150496;27;20043;-72
2023/07/29 03:57:06;;;;;;;8.47;3.67;;;16.20;99.90;;;;;;5082499;27;20035;-72
2023/07/29 03:59:33;;;;;;;8.50;3.80;;;16.20;99.90;;;;;;5117096;27;20038;-73
2023/07/29 04:01:58;;;;;;;10.80;3.60;;;16.20;99.90;;;;;;5134640;27;20332;-72
2023/07/29 04:04:24;;;;;;;7.93;3.78;;;16.20;99.90;;;;;;5116212;27;20039;-71
2023/07/29 04:06:50;;;;;;;8.07;3.63;;;16.20;99.90;;;;;;5116643;27;20051;-70
2023/07/29 04:09:15;;;;;;;7.35;3.67;;;16.20;99.90;;;;;;5134289;28;20047;-72
2023/07/29 04:11:41;;;;;;;9.18;3.40;;;16.30;99.90;;;;;;5116623;28;20126;-73
2023/07/29 04:14:07;;;;;;;12.40;3.40;;;16.30;99.90;;;;;;5133517;28;20043;-72
2023/07/29 04:16:33;;;;;;;8.10;3.87;;;16.30;99.90;;;;;;5116612;28;20048;-72
2023/07/29 04:18:58;;;;;;;7.97;3.50;;;16.30;99.90;;;;;;5134493;28;20480;-72
2023/07/29 04:21:24;;;;;;;8.10;3.80;;;16.30;99.90;;;;;;5116095;28;20082;-73
2023/07/29 04:23:50;;;;;;;10.60;2.93;;;16.40;99.90;;;;;;5116317;28;20043;-73
2023/07/29 04:26:15;;;;;;;10.07;3.35;;;16.40;99.90;;;;;;5117054;28;20054;-71
2023/07/29 04:28:42;;;;;;;6.85;2.78;;;16.40;99.90;;;;;;5115971;28;20047;-72
2023/07/29 04:31:08;;;;;;;8.55;3.30;;;16.40;99.90;;;;;;5115995;28;20055;-72
2023/07/29 04:33:34;;;;;;;6.27;2.73;;;16.50;99.90;;;;;;5134320;28;20043;-72
2023/07/29 04:35:59;;;;;;;8.10;3.15;;;16.50;99.90;;;;;;5116006;28;20039;-72
2023/07/29 04:38:32;;;;;;;7.80;2.97;;;16.50;99.90;;;;;;5116878;28;20043;-72
2023/07/29 04:41:00;;;;;;;9.27;3.20;;;16.60;99.90;;;;;;5134210;28;20118;-73
2023/07/29 04:43:33;;;;;;;7.65;3.15;;;16.60;99.90;;;;;;5133566;27;20526;-73
2023/07/29 04:45:58;;;;;;;6.57;3.03;;;16.60;99.90;;;;;;5098735;28;20043;-72
2023/07/29 04:48:24;;;;;;;7.80;2.92;;;16.70;99.90;;;;;;5116134;28;20043;-72
2023/07/29 04:50:50;;;;;;;8.18;2.88;;;16.70;99.90;;;;;;5133690;28;20130;-72
2023/07/29 04:53:16;;;;;;;6.97;2.67;;;16.70;99.90;;;;;;5133856;28;20058;-73
2023/07/29 04:55:43;;;;;;;9.23;3.10;;;16.70;99.90;;;;;;5115675;28;20039;-74
2023/07/29 04:58:08;;;;;;;;;;;16.70;99.90;;;;;;5116084;28;20035;-72
2023/07/29 05:00:34;;;;;;;9.07;3.03;;;16.80;99.90;;;;;;5150357;27;19985;-72
2023/07/29 05:03:01;;;;;;;9.73;2.93;;;16.80;99.90;;;;;;5098577;28;20535;-73
2023/07/29 05:05:27;;;;;;;7.20;2.60;;;16.80;99.90;;;;;;5116109;28;20051;-72
2023/07/29 05:07:52;;;;;;;12.47;3.30;;;16.90;99.90;;;;;;5134573;28;20415;-72
2023/07/29 05:10:18;;;;;;;9.40;3.53;;;16.90;99.90;;;;;;5115320;28;20054;-73
2023/07/29 05:12:44;;;;;;;8.50;3.37;;;17.00;99.90;;;;;;5098615;28;20100;-74
2023/07/29 05:15:10;;;;;;;11.50;3.15;;;17.00;99.90;;;;;;5116753;27;20043;-73
2023/07/29 05:17:36;;;;;;;11.93;3.53;;;17.00;99.90;;;;;;5137714;27;20490;-73
2023/07/29 05:20:02;;;;;;;10.50;3.53;;;17.00;99.90;;;;;;5119480;27;20130;-73
2023/07/29 05:22:28;;;;;;;9.13;3.70;;;17.10;99.90;;;;;;5119142;27;20386;-73
2023/07/29 05:24:53;;;;;;;9.05;3.50;;;17.10;99.90;;;;;;5119467;27;20049;-72
2023/07/29 05:27:19;;;;;;;9.75;3.83;;;17.10;99.90;;;;;;5119415;27;20073;-72
2023/07/29 05:29:45;;;;;;;11.07;3.30;;;17.20;99.90;;;;;;5137005;27;20467;-74
2023/07/29 05:32:10;;;;;;;15.50;4.40;;;17.20;99.90;;;;;;5137346;27;20039;-74
2023/07/29 05:34:37;;;;;;;11.43;3.87;;;17.30;99.90;;;;;;5101948;27;20047;-73
2023/07/29 05:37:03;;;;;;;10.38;4.32;;;17.30;99.90;;;;;;5119088;27;20095;-74
2023/07/29 05:39:32;;;;;;;16.37;4.50;;;17.30;99.90;;;;;;5137375;27;20113;-73
2023/07/29 05:41:57;;;;;;;12.10;4.30;;;17.30;99.90;;;;;;5118891;27;20039;-73
2023/07/29 05:44:23;;;;;;;12.97;4.67;;;17.30;99.90;;;;;;5137822;27;20140;-73
2023/07/29 05:46:49;;;;;;;11.45;4.45;;;17.30;99.90;;;;;;5137534;27;20061;-73
2023/07/29 05:49:15;;;;;;;10.37;4.00;;;17.30;99.90;;;;;;5137126;27;20371;-74
2023/07/29 05:51:40;;;;;;;12.13;4.25;;;17.40;99.90;;;;;;5118822;27;20043;-73
2023/07/29 05:54:06;;;;;;;10.45;4.53;;;17.40;99.90;;;;;;5118686;27;20031;-73
2023/07/29 05:56:32;;;;;;;13.93;5.13;;;17.50;99.90;;;;;;5137019;27;20047;-73
2023/07/29 05:58:57;;;;;;;12.37;4.97;;;17.50;99.90;;;;;;5136630;27;20043;-74
2023/07/29 06:01:23;;;;;;;10.80;4.87;;;17.50;99.90;;;;;;5101727;27;20114;-73
2023/07/29 06:03:50;;;;;;;12.00;4.47;;;17.60;99.90;;;;;;5119250;27;20039;-72
2023/07/29 06:06:16;;;;;;;13.57;5.73;;;17.60;99.90;;;;;;5118474;27;20498;-73
2023/07/29 06:08:41;;;;;;;13.73;5.47;;;17.60;99.90;;;;;;5136620;27;20051;-72
2023/07/29 06:11:07;;;;;;;13.17;5.17;;;17.60;99.90;;;;;;5100943;27;20051;-73
2023/07/29 06:13:33;;;;;;;13.43;5.63;;;17.60;99.90;;;;;;5136523;27;20042;-72
2023/07/29 06:15:58;;;;;;;13.47;5.70;;;17.70;99.90;;;;;;5118069;27;20424;-71
2023/07/29 06:18:24;;;;;;;15.43;5.17;;;17.70;99.90;;;;;;5118043;27;20047;-73
2023/07/29 06:20:51;;;;;;;13.63;5.83;;;17.90;99.90;;;;;;5152566;27;20093;-72
2023/07/29 06:23:17;;;;;;;15.02;5.25;;;18.00;99.90;;;;;;5117789;27;20467;-71
2023/07/29 06:25:43;;;;;;;16.03;5.23;;;18.10;99.90;;;;;;5118638;27;20039;-72
2023/07/29 06:28:09;;;;;;;11.73;4.67;;;18.10;99.90;;;;;;5117806;27;20110;-72
2023/07/29 06:30:35;;;;;;;11.93;5.07;;;18.20;99.90;;;;;;5118354;27;20039;-71
2023/07/29 06:33:02;;;;;;;15.67;5.47;;;18.20;99.90;;;;;;5118038;27;20534;-73
2023/07/29 06:35:28;;;;;;;13.07;4.90;;;18.30;99.90;;;;;;5102273;27;20092;-72
2023/07/29 06:37:54;;;;;;;15.30;4.83;;;18.30;99.90;;;;;;5101006;27;20042;-74
2023/07/29 06:40:20;;;;;;;11.97;4.90;;;18.40;99.90;;;;;;5152147;27;20042;-71
2023/07/29 06:42:46;;;;;;;16.23;4.63;;;18.50;99.90;;;;;;5136012;27;20122;-72
2023/07/29 06:45:11;;;;;;;11.20;4.57;;;18.60;99.90;;;;;;5135491;27;20043;-74
2023/07/29 06:47:37;;;;;;;18.07;5.27;;;18.60;99.90;;;;;;5117629;27;20043;-73
2023/07/29 06:50:04;;;;;;;13.07;4.57;;;18.60;99.90;;;;;;5117478;27;20435;-73
2023/07/29 06:52:29;;;;;;;12.52;4.40;;;18.70;99.90;;;;;;5100842;27;20046;-73
2023/07/29 06:54:55;;;;;;;11.67;4.63;;;18.80;99.90;;;;;;5100509;27;20043;-74
2023/07/29 06:57:21;;;;;;;13.47;4.70;;;18.80;99.90;;;;;;5118160;27;20362;-73
2023/07/29 06:59:47;;;;;;;11.87;4.47;;;18.80;99.90;;;;;;5117483;27;20344;-74
2023/07/29 07:02:13;;;;;;;10.63;5.10;;;18.80;99.90;;;;;;5135648;27;20050;-73
2023/07/29 07:04:38;;;;;;;12.37;5.07;;;18.90;99.90;;;;;;5151891;27;20035;-73
2023/07/29 07:07:04;;;;;;;10.53;4.57;;;18.90;99.90;;;;;;5135542;27;20501;-73
2023/07/29 07:09:30;;;;;;;10.57;4.70;;;19.00;99.90;;;;;;5117221;27;20050;-73
2023/07/29 07:11:56;;;;;;;10.93;4.70;;;19.10;99.90;;;;;;5117784;27;20055;-73
2023/07/29 07:14:22;;;;;;;12.33;4.67;;;19.10;99.90;;;;;;5135260;27;20375;-73
2023/07/29 07:16:47;;;;;;;12.90;4.17;;;19.20;99.90;;;;;;5100421;27;20100;-73
2023/07/29 07:19:13;;;;;;;10.00;4.03;;;19.30;99.90;;;;;;5117161;27;20050;-71
2023/07/29 07:21:39;;;;;;;12.07;4.60;;;19.40;99.90;;;;;;5135285;27;20046;-72
2023/07/29 07:24:05;;;;;;;12.50;4.38;;;19.50;99.90;;;;;;5100297;27;20035;-72
2023/07/29 07:26:31;;;;;;;11.43;4.30;;;19.70;99.90;;;;;;5135912;27;20100;-73
2023/07/29 07:28:57;;;;;;;11.43;4.47;;;19.90;99.90;;;;;;5135114;27;20122;-73
2023/07/29 07:31:22;;;;;;;12.10;3.70;;;20.00;99.90;;;;;;5116709;27;20035;-70
2023/07/29 07:33:48;;;;;;;11.60;4.00;;;20.10;99.90;;;;;;5135598;27;20364;-73
2023/07/29 07:36:15;;;;;;;13.37;4.43;;;20.30;99.90;;;;;;5116926;27;20427;-72
2023/07/29 07:38:41;;;;;;;12.93;3.90;;;20.30;99.90;;;;;;5116722;27;20043;-73
2023/07/29 07:41:07;;;;;;;9.87;4.13;;;20.30;99.90;;;;;;5116368;27;20035;-72
2023/07/29 07:43:33;;;;;;;8.60;4.40;;;20.40;99.90;;;;;;5099785;27;20035;-73
2023/07/29 07:46:01;;;;;;;9.20;3.97;;;20.50;99.90;;;;;;5117390;27;20043;-73
2023/07/29 07:48:28;;;;;;;10.07;4.28;;;20.50;99.90;;;;;;5116626;27;20045;-73
2023/07/29 07:50:53;;;;;;;9.60;4.63;;;20.50;99.90;;;;;;5116974;27;20115;-71
2023/07/29 07:53:19;;;;;;;10.17;4.37;;;20.50;99.90;;;;;;5117086;27;20520;-72
2023/07/29 07:55:46;;;;;;;11.40;3.97;;;20.30;99.90;;;;;;5116394;27;20118;-73
2023/07/29 07:58:12;;;;;;;10.07;4.65;;;20.30;99.90;;;;;;5116722;28;20047;-73
2023/07/29 08:00:37;;;;;;;11.27;4.17;;;20.30;99.90;;;;;;5133725;27;20123;-71
2023/07/29 08:03:03;;;;;;;9.80;4.13;;;20.40;99.90;;;;;;5133381;27;20035;-72
2023/07/29 08:05:29;;;;;;;8.70;4.20;;;20.50;99.90;;;;;;5134565;27;20043;-71
2023/07/29 08:07:55;;;;;;;11.30;4.63;;;20.60;99.90;;;;;;5116380;27;20318;-72
2023/07/29 08:10:21;;;;;;;9.57;4.15;;;20.70;99.90;;;;;;5098789;28;20451;-72
2023/07/29 08:12:47;;;;;;;11.30;4.40;;;20.80;99.90;;;;;;5116192;28;20050;-73
2023/07/29 08:15:13;;;;;;;8.57;3.50;;;20.90;99.90;;;;;;5134361;28;20043;-73
2023/07/29 08:17:38;;;;;;;7.90;3.50;;;21.10;99.90;;;;;;5134467;28;20035;-72
2023/07/29 08:20:04;;;;;;;10.00;3.30;;;21.10;99.90;;;;;;5099152;28;20099;-73
2023/07/29 08:22:30;;;;;;;8.43;3.17;;;21.30;99.90;;;;;;5116073;28;20051;-73
2023/07/29 08:24:56;;;;;;;10.47;3.27;;;21.50;99.90;;;;;;5116349;28;20035;-71
2023/07/29 08:27:21;;;;;;;11.53;3.47;;;21.60;99.90;;;;;;5117023;28;20043;-73
2023/07/29 08:29:47;;;;;;;8.10;3.30;;;21.50;99.90;;;;;;5099189;28;20039;-72
2023/07/29 08:32:13;;;;;;;7.07;2.83;;;21.70;99.90;;;;;;5116028;28;20050;-73
2023/07/29 08:34:39;;;;;;;7.97;3.13;;;21.80;99.90;;;;;;5116123;28;20054;-70
2023/07/29 08:37:05;;;;;;;8.83;3.03;;;22.00;99.90;;;;;;5134325;28;20050;-73
2023/07/29 08:39:30;;;;;;;7.90;2.72;;;22.00;99.90;;;;;;5099969;28;20340;-74
2023/07/29 08:42:00;;;;;;;9.90;3.20;;;22.00;99.90;;;;;;5116007;28;20046;-72
2023/07/29 08:44:30;;;;;;;10.77;2.97;;;21.90;99.90;;;;;;5116869;28;20043;-73
2023/07/29 08:46:57;;;;;;;5.97;2.58;;;21.90;99.90;;;;;;5099316;28;20432;-72
2023/07/29 08:49:23;;;;;;;8.57;2.70;;;21.90;99.90;;;;;;5099087;27;20092;-73
2023/07/29 08:51:53;;;;;;;8.55;2.97;;;21.90;99.90;;;;;;5119074;27;20104;-73
2023/07/29 08:54:19;;;;;;;9.18;2.53;;;21.80;99.90;;;;;;5137975;27;20122;-72
2023/07/29 08:56:45;;;;;;;6.00;2.40;;;21.80;99.90;;;;;;5119908;27;20054;-74
2023/07/29 08:59:12;;;;;;;;;;;21.80;99.90;;;;;;5137426;27;20071;-71
2023/07/29 09:01:38;;;;;;;;;;;21.80;99.90;;;;;;5138384;27;19915;-72
2023/07/29 09:04:04;;;;;;;8.90;2.38;;;21.90;99.90;;;;;;5102854;27;20267;-72
2023/07/29 09:06:32;;;;;;;6.68;2.00;;;21.90;99.90;;;;;;5138657;27;20344;-72
2023/07/29 09:08:58;;;;;;;8.55;1.98;;;22.20;99.90;;;;;;5138365;27;20043;-72
2023/07/29 09:11:24;;;;;;;;;;;22.30;99.90;;;;;;5102658;27;20051;-72
2023/07/29 09:13:50;;;;;;;5.18;1.95;;;22.50;99.90;;;;;;5138479;27;19980;-71
2023/07/29 09:16:16;;;;;;;6.67;1.60;;;22.50;99.90;;;;;;5119532;27;20122;-73
2023/07/29 09:18:42;;;;;;;7.57;1.92;;;22.50;99.90;;;;;;5138396;27;20039;-71
2023/07/29 09:21:08;;;;;;;7.33;1.90;;;22.40;99.90;;;;;;5120205;27;20126;-73
2023/07/29 09:23:44;;;;;;;6.30;1.73;;;22.40;99.90;;;;;;5137454;27;20376;-71
2023/07/29 09:26:10;;;;;;;6.30;2.05;;;22.50;99.90;;;;;;5154552;27;20118;-73
2023/07/29 09:28:38;;;;;;;8.40;1.98;;;22.50;99.90;;;;;;5137352;27;20035;-72
2023/07/29 09:31:05;;;;;;;6.75;2.05;;;22.60;99.90;;;;;;5119204;27;20100;-74
2023/07/29 09:33:37;;;;;;;6.93;2.10;;;22.60;99.90;;;;;;5137250;27;20045;-70
2023/07/29 09:36:09;;;;;;;8.80;2.33;;;22.50;99.90;;;;;;5120340;27;20464;-73
2023/07/29 09:38:35;;;;;;;7.15;2.08;;;22.70;99.90;;;;;;5119338;27;20043;-69
2023/07/29 09:41:02;;;;;;;7.38;2.30;;;22.90;99.90;;;;;;5119050;27;20119;-70
2023/07/29 09:43:33;;;;;;;5.40;2.40;;;23.20;99.90;;;;;;5101773;27;20100;-71
2023/07/29 09:46:08;;;;;;;5.85;2.30;;;23.30;99.90;;;;;;5118505;27;20213;-74
2023/07/29 09:48:38;;;;;;;6.47;1.88;;;23.40;99.90;;;;;;5137542;27;20043;-73
2023/07/29 09:51:15;;;;;;;6.47;2.38;;;23.30;99.90;;;;;;5119183;27;20070;-72
2023/07/29 09:53:46;;;;;;;8.02;2.88;;;23.20;99.90;;;;;;5136954;27;20050;-71
2023/07/29 09:56:12;;;;;;;8.63;2.78;;;23.20;99.90;;;;;;5136944;27;20092;-73
2023/07/29 09:58:38;;;;;;;;;;;23.20;99.90;;;;;;5137152;27;20039;-72
2023/07/29 10:01:08;;;;;;;6.25;2.38;;;23.30;99.90;;;;;;5136601;27;20362;-71
2023/07/29 10:03:35;;;;;;;6.75;2.25;;;23.60;99.90;;;;;;5118904;27;20533;-71
2023/07/29 10:06:02;;;;;;;;;;;23.60;99.90;;;;;;5101874;27;20050;-69
2023/07/29 10:08:31;;;;;;;5.65;2.05;;;23.60;99.90;;;;;;5136668;27;19915;-71
2023/07/29 10:11:01;;;;;;;6.10;2.50;;;23.40;99.90;;;;;;5117814;27;20360;-73
2023/07/29 10:13:27;;;;;;;7.97;2.75;;;23.40;99.90;;;;;;5136531;27;20039;-72
2023/07/29 10:15:56;;;;;;;6.18;3.28;;;23.50;99.90;;;;;;5153767;27;20121;-72
2023/07/29 10:18:23;;;;;;;10.38;3.85;;;23.80;99.90;;;;;;5136532;27;20116;-71
2023/07/29 10:20:53;;;;;;;9.63;4.47;;;23.90;99.90;;;;;;5136988;27;20039;-73
2023/07/29 10:23:22;;;;;;;7.65;4.00;;;23.80;99.90;;;;;;5152209;27;20175;-72
2023/07/29 10:26:03;;;;;;;12.27;4.78;;;23.40;99.90;;;;;;5136504;27;20375;-73
2023/07/29 10:28:30;;;;;;;8.88;3.95;;;23.40;99.90;;;;;;5118368;27;20062;-73
2023/07/29 10:30:57;;;;;;;7.45;4.30;;;23.30;99.90;;;;;;5135814;27;20501;-74
2023/07/29 10:33:23;;;;;;;9.75;4.57;;;23.00;99.90;;;;;;5117967;27;20039;-73
2023/07/29 10:35:49;;;;;;;8.20;5.00;;;22.70;99.90;;;;;;5135151;27;20122;-71
2023/07/29 10:38:16;;;;;;;11.32;5.50;;;22.50;99.90;;;;;;5117711;27;20474;-73
2023/07/29 10:40:50;;;;;;;;;;;22.20;99.90;;;;;;5136327;27;20118;-72
2023/07/29 10:43:28;;;;;;;12.60;5.88;;;22.20;99.90;;;;;;5136003;27;19970;-71
2023/07/29 10:45:56;;;;;;;9.73;5.72;;;22.30;99.90;;;;;;5101827;27;20046;-71
2023/07/29 10:48:34;;;;;;;9.55;5.00;;;22.30;99.90;;;;;;5117828;27;20463;-70
2023/07/29 10:51:32;;;;;;;9.65;5.38;;;22.50;99.90;;;;;;5136615;27;20049;-72
2023/07/29 10:54:03;;;;;;;8.75;5.80;;;22.80;99.90;;;;;;5117868;27;20035;-71
2023/07/29 10:56:34;;;;;;;8.15;5.38;;;23.00;99.90;;;;;;5117850;27;20039;-76
2023/07/29 10:59:31;;;;;;;8.60;4.75;;;23.10;99.90;;;;;;5135558;27;20047;-68
2023/07/29 11:01:58;;;;;;;10.48;4.10;;;23.30;99.90;;;;;;5135877;27;20061;-72
2023/07/29 11:04:25;;;;;;;;;;;23.40;99.90;;;;;;5117725;27;20051;-70
2023/07/29 11:07:03;;;;;;;7.63;4.22;;;23.40;99.90;;;;;;5151804;27;19915;-72
2023/07/29 11:09:41;;;;;;;6.93;4.00;;;23.30;99.90;;;;;;5135409;27;20031;-71
2023/07/29 11:12:38;;;;;;;8.60;4.15;;;23.50;99.90;;;;;;5116847;27;20054;-72
2023/07/29 11:15:11;;;;;;;10.95;4.22;;;23.80;99.90;;;;;;5134802;27;20490;-71
2023/07/29 11:17:43;;;;;;;7.13;3.92;;;24.20;99.90;;;;;;5136055;27;20146;-71
2023/07/29 11:20:09;;;;;;;9.98;3.60;;;24.30;99.90;;;;;;5135376;27;20039;-71
2023/07/29 11:22:36;;;;;;;8.75;3.70;;;24.40;99.90;;;;;;5117130;27;20475;-74
2023/07/29 11:25:02;;;;;;;8.88;3.50;;;24.50;99.90;;;;;;5134927;27;20095;-72
2023/07/29 11:27:28;;;;;;;8.70;3.70;;;24.60;99.90;;;;;;5117061;27;20039;-71
2023/07/29 11:30:02;;;;;;;8.90;3.30;;;24.60;99.90;;;;;;5134949;27;20052;-70
2023/07/29 11:32:28;;;;;;;7.63;2.80;;;24.60;99.90;;;;;;5135511;27;20055;-71
2023/07/29 11:34:54;;;;;;;9.87;3.00;;;24.60;99.90;;;;;;5135040;27;20043;-69
2023/07/29 11:37:21;;;;;;;8.47;2.60;;;24.60;99.90;;;;;;5134617;27;20288;-70
2023/07/29 11:39:47;;;;;;;5.15;2.10;;;24.50;99.90;;;;;;5135339;27;20371;-72
2023/07/29 11:42:14;;;;;;;8.98;2.20;;;24.40;99.90;;;;;;5134968;27;20046;-72
2023/07/29 11:44:40;;;;;;;6.80;2.05;;;24.30;99.90;;;;;;5134901;27;20035;-72
2023/07/29 11:47:12;;;;;;;8.00;2.47;;;24.20;99.90;;;;;;5117029;27;20100;-73
2023/07/29 11:49:41;;;;;;;10.45;1.92;;;24.00;99.90;;;;;;5135237;27;20118;-74
2023/07/29 11:52:11;;;;;;;6.03;1.90;;;23.90;99.90;;;;;;5116494;27;20046;-74
2023/07/29 11:54:38;;;;;;;10.15;2.25;;;23.80;99.90;;;;;;5135061;27;20031;-74
2023/07/29 11:57:05;;;;;;;;;;;23.90;99.90;;;;;;5135210;27;20054;-71
2023/07/29 11:59:33;;;;;;;6.53;1.75;;;24.00;99.90;;;;;;5134760;27;19920;-68
2023/07/29 12:02:00;;;;;;;4.57;1.52;;;24.10;99.90;;;;;;5134541;27;20078;-73
2023/07/29 12:04:26;;;;;;;5.97;2.10;;;24.30;99.90;;;;;;5134574;27;20046;-72
2023/07/29 12:06:52;;;;;;;8.10;2.00;;;24.30;99.90;;;;;;5135599;27;20125;-73
2023/07/29 12:09:18;;;;;;;9.32;2.28;;;24.10;99.90;;;;;;5134103;27;20118;-72
2023/07/29 12:11:44;;;;;;;5.95;1.92;;;24.10;99.90;;;;;;5150612;27;20056;-72
2023/07/29 12:14:10;;;;;;;7.80;2.07;;;24.10;99.90;;;;;;5116756;28;20114;-72
2023/07/29 12:16:43;;;;;;;4.63;1.83;;;24.10;99.90;;;;;;5134490;28;20272;-72
2023/07/29 12:19:11;;;;;;;9.57;1.98;;;24.10;99.90;;;;;;5150670;27;20490;-71
2023/07/29 12:21:37;;;;;;;9.48;2.17;;;24.40;99.90;;;;;;5134405;28;20045;-70
2023/07/29 12:24:03;;;;;;;8.23;2.10;;;24.50;99.90;;;;;;5134340;27;20475;-72
2023/07/29 12:26:32;;;;;;;10.15;2.53;;;24.50;99.90;;;;;;5118929;27;20046;-72
2023/07/29 12:28:58;;;;;;;6.45;1.77;;;24.70;99.90;;;;;;5103794;27;20035;-73
2023/07/29 12:31:33;;;;;;;7.30;1.80;;;24.70;99.90;;;;;;5120491;27;20498;-72
2023/07/29 12:33:59;;;;;;;6.40;2.00;;;24.30;99.90;;;;;;5120491;27;20039;-74
2023/07/29 12:36:50;;;;;;;9.10;2.50;;;24.30;99.90;;;;;;5138818;27;20035;-73
2023/07/29 12:39:31;;;;;;;7.82;1.88;;;24.00;99.90;;;;;;5120569;27;20047;-74
2023/07/29 12:41:59;;;;;;;7.15;2.00;;;23.90;99.90;;;;;;5155510;27;20092;-74
2023/07/29 12:44:27;;;;;;;6.65;1.98;;;23.60;99.90;;;;;;5103350;27;20068;-74